createdAt,value
2019-04-16T00:04:10.220Z,41.2
2019-04-16T00:14:24.133Z,41.1
2019-04-16T00:24:38.254Z,41.2
2019-04-16T00:35:24.206Z,41.5
2019-04-16T00:45:38.755Z,41.5
2019-04-16T00:56:07.460Z,41.2
2019-04-16T01:06:21.048Z,41.3
2019-04-16T01:17:07.255Z,41.3
2019-04-16T01:27:20.813Z,41.6
2019-04-16T01:37:35.742Z,41.9
2019-04-16T01:48:21.365Z,41.9
2019-04-16T01:58:35.858Z,42.6
2019-04-16T02:09:22.431Z,42.4
2019-04-16T02:19:32.757Z,42.8
2019-04-16T02:29:42.080Z,42.9
2019-04-16T02:39:56.786Z,43.1
2019-04-16T02:51:04.918Z,43.5
2019-04-16T03:01:11.928Z,43.2
2019-04-16T03:13:00.955Z,43.4
2019-04-16T03:25:53.859Z,44.1
2019-04-16T03:37:44.783Z,44.2
2019-04-16T03:50:23.435Z,44.1
2019-04-16T04:03:03.576Z,44.1
2019-04-16T04:13:18.562Z,44.2
2019-04-16T04:24:02.538Z,44.4
2019-04-16T04:34:23.643Z,44.4
2019-04-16T04:44:37.601Z,44.4
2019-04-16T04:54:53.947Z,44.8
2019-04-16T05:05:02.570Z,45.0
2019-04-16T05:15:29.279Z,45.3
2019-04-16T05:25:40.171Z,45.5
2019-04-16T05:36:25.614Z,45.4
2019-04-16T05:47:10.376Z,46.0
2019-04-16T05:58:02.700Z,46.1
2019-04-16T06:08:49.975Z,46.5
2019-04-16T06:20:10.962Z,46.5
2019-04-16T06:30:24.924Z,47.0
2019-04-16T06:40:40.187Z,48.1
2019-04-16T06:50:54.443Z,48.6
2019-04-16T07:01:09.107Z,48.3
2019-04-16T07:11:54.938Z,48.9
2019-04-16T07:22:41.896Z,48.3
2019-04-16T07:46:16.428Z,46.9
2019-04-16T08:53:31.158Z,33.7
2019-04-16T09:29:16.423Z,28.7
2019-04-16T09:52:32.351Z,28.1
2019-04-16T10:06:42.631Z,27.4
2019-04-16T10:16:55.994Z,26.5
2019-04-16T10:27:52.057Z,26.7
2019-04-16T10:38:42.998Z,26.9
2019-04-16T10:51:06.733Z,27.0
2019-04-16T11:01:20.292Z,26.8
2019-04-16T11:12:06.107Z,27.2
2019-04-16T11:22:54.067Z,26.9
2019-04-16T11:33:39.927Z,26.2
2019-04-16T11:43:54.180Z,26.7
2019-04-16T11:54:41.185Z,25.5
2019-04-16T12:04:55.932Z,26.1
2019-04-16T12:21:11.352Z,25.9
2019-04-16T12:32:21.881Z,26.5
2019-04-16T12:58:35.237Z,26.9
2019-04-16T13:10:43.569Z,27.1
2019-04-16T13:34:45.781Z,27.2
2019-04-16T13:47:51.802Z,28.4
2019-04-16T13:58:02.247Z,28.5
2019-04-16T14:09:09.457Z,28.1
2019-04-16T14:19:57.358Z,27.9
2019-04-16T14:30:44.088Z,28.5
2019-04-16T14:40:58.508Z,29.4
2019-04-16T14:51:12.213Z,28.3
2019-04-16T15:01:25.912Z,28.6
2019-04-16T15:11:39.711Z,29.8
2019-04-16T15:21:52.913Z,24.4
2019-04-16T15:39:47.761Z,27.2
2019-04-16T15:50:36.593Z,28.1
2019-04-16T16:03:18.179Z,28.4
2019-04-16T16:13:32.210Z,29.2
2019-04-16T16:23:46.370Z,29.6
2019-04-16T16:34:00.377Z,29.7
2019-04-16T16:45:02.925Z,29.7
2019-04-16T16:55:17.612Z,30.9
2019-04-16T17:06:13.251Z,31.7
2019-04-16T19:02:29.454Z,36.1
2019-04-16T19:48:00.117Z,37.3
2019-04-16T20:19:53.043Z,37.3
2019-04-16T22:28:38.597Z,38.7
2019-04-16T22:39:30.336Z,38.6
2019-04-16T22:50:17.275Z,38.7
2019-04-16T23:00:27.890Z,39.0
2019-04-16T23:10:38.944Z,39.1
2019-04-16T23:20:53.635Z,38.8
2019-04-16T23:31:07.868Z,39.4
2019-04-16T23:41:21.454Z,39.6
2019-04-16T23:51:35.032Z,40.1
